Time;durP1;ratioP1;P1;durP2;ratioP2;P2;SDS_P1;SDS_P2;PMS_P1;PMS_P2;Temp;Humidity;BMP_temperature;BMP_pressure;BME280_temperature;BME280_humidity;BME280_pressure;Samples;Min_cycle;Max_cycle;Signal;HPM_P1;HPM_P2
2022/03/28 00:01:28;;;;;;;;;29.50;28.50;;;;;;;;5133136;27;8809;-73
2022/03/28 00:03:53;;;;;;;;;32.50;29.75;;;;;;;;5132897;27;8777;-73
2022/03/28 00:06:19;;;;;;;;;39.67;33.00;;;;;;;;5133048;27;8786;-73
2022/03/28 00:08:44;;;;;;;;;30.75;23.75;;;;;;;;5133007;27;8785;-73
2022/03/28 00:11:10;;;;;;;;;33.25;29.75;;;;;;;;5114559;27;9629;-74
2022/03/28 00:13:36;;;;;;;;;27.00;26.50;;;;;;;;5114273;27;8939;-74
2022/03/28 00:16:01;;;;;;;;;29.75;28.75;;;;;;;;5132924;27;8772;-75
2022/03/28 00:18:27;;;;;;;;;23.75;21.50;;;;;;;;5133250;27;8800;-74
2022/03/28 00:20:53;;;;;;;;;33.25;28.00;;;;;;;;5132695;27;8832;-73
2022/03/28 00:23:22;;;;;;;;;35.33;31.67;;;;;;;;5132625;27;8786;-74
2022/03/28 00:25:48;;;;;;;;;26.67;26.67;;;;;;;;5132467;27;11487;-73
2022/03/28 00:28:14;;;;;;;;;33.25;29.00;;;;;;;;5132419;27;11445;-74
2022/03/28 00:30:39;;;;;;;;;38.50;29.50;;;;;;;;5132479;27;8798;-73
2022/03/28 00:33:05;;;;;;;;;37.75;28.50;;;;;;;;5132595;27;8821;-73
2022/03/28 00:35:30;;;;;;;;;28.50;27.75;;;;;;;;5132095;27;8778;-73
2022/03/28 00:37:56;;;;;;;;;31.33;27.00;;;;;;;;5131750;27;8876;-72
2022/03/28 00:40:22;;;;;;;;;28.00;26.75;;;;;;;;5132433;27;8769;-72
2022/03/28 00:42:50;;;;;;;;;34.33;28.67;;;;;;;;5132285;27;8845;-73
2022/03/28 00:45:15;;;;;;;;;33.67;28.67;;;;;;;;5132310;27;11423;-74
2022/03/28 00:47:41;;;;;;;;;33.75;28.50;;;;;;;;5131803;27;11480;-74
2022/03/28 00:50:07;;;;;;;;;42.67;30.67;;;;;;;;5113593;27;8809;-74
2022/03/28 00:52:32;;;;;;;;;31.33;31.00;;;;;;;;5132143;27;8781;-73
2022/03/28 00:54:58;;;;;;;;;39.33;32.00;;;;;;;;5131878;27;8785;-74
2022/03/28 00:57:23;;;;;;;;;31.33;27.67;;;;;;;;5131915;27;9494;-73
2022/03/28 00:59:49;;;;;;;;;27.67;27.00;;;;;;;;5131952;27;8802;-74
2022/03/28 01:02:14;;;;;;;;;38.00;29.33;;;;;;;;5113158;27;8817;-73
2022/03/28 01:04:39;;;;;;;;;27.00;25.00;;;;;;;;5131975;27;8797;-74
2022/03/28 01:07:06;;;;;;;;;34.33;28.67;;;;;;;;5131930;27;8817;-73
2022/03/28 01:09:31;;;;;;;;;25.67;23.67;;;;;;;;5131396;27;8904;-73
2022/03/28 01:11:57;;;;;;;;;26.67;23.00;;;;;;;;5131706;27;11545;-74
2022/03/28 01:14:25;;;;;;;;;26.33;23.00;;;;;;;;5131051;27;8891;-73
2022/03/28 01:19:34;;;;;;;;;34.00;25.33;;;;;;;;5131486;27;12181;-72
2022/03/28 01:22:00;;;;;;;;;29.67;28.33;;;;;;;;5131456;27;11495;-75
2022/03/28 01:24:25;;;;;;;;;31.33;25.67;;;;;;;;5131477;27;8851;-74
2022/03/28 01:26:51;;;;;;;;;30.33;29.33;;;;;;;;5131405;27;9652;-73
2022/03/28 01:29:17;;;;;;;;;32.67;31.00;;;;;;;;5131569;27;8866;-74
2022/03/28 01:31:42;;;;;;;;;33.00;27.33;;;;;;;;5113487;27;8805;-74
2022/03/28 01:34:15;;;;;;;;;37.33;31.33;;;;;;;;5112963;27;8936;-74
2022/03/28 01:36:40;;;;;;;;;35.00;28.00;;;;;;;;5131571;27;8778;-73
2022/03/28 01:39:05;;;;;;;;;32.33;28.67;;;;;;;;5131270;27;11668;-74
2022/03/28 01:41:30;;;;;;;;;30.00;29.33;;;;;;;;5131441;27;8782;-73
2022/03/28 01:43:56;;;;;;;;;28.67;27.33;;;;;;;;5131320;27;8818;-74
2022/03/28 01:46:21;;;;;;;;;27.67;27.00;;;;;;;;5131266;27;8789;-74
2022/03/28 01:48:46;;;;;;;;;30.00;28.67;;;;;;;;5131137;27;8774;-73
2022/03/28 01:51:12;;;;;;;;;33.67;30.00;;;;;;;;5131397;27;8761;-73
2022/03/28 01:53:37;;;;;;;;;27.00;26.67;;;;;;;;5112570;27;8853;-74
2022/03/28 01:56:02;;;;;;;;;32.67;28.67;;;;;;;;5131133;27;8896;-73
2022/03/28 01:58:28;;;;;;;;;33.33;27.67;;;;;;;;5131101;27;8794;-74
2022/03/28 02:00:53;;;;;;;;;31.00;26.00;;;;;;;;5112687;27;8813;-74
2022/03/28 02:03:18;;;;;;;;;34.67;29.33;;;;;;;;5131302;27;9521;-74
2022/03/28 02:05:43;;;;;;;;;30.00;27.00;;;;;;;;5130990;27;8790;-76
2022/03/28 02:08:09;;;;;;;;;33.00;25.67;;;;;;;;5130907;27;8874;-74
2022/03/28 02:10:34;;;;;;;;;32.00;30.00;;;;;;;;5112534;27;8813;-74
2022/03/28 02:13:00;;;;;;;;;30.67;26.67;;;;;;;;5130579;27;8869;-74
2022/03/28 02:15:25;;;;;;;;;33.33;23.67;;;;;;;;5131123;27;8818;-74
2022/03/28 02:17:51;;;;;;;;;25.67;25.67;;;;;;;;5130959;27;9501;-74
2022/03/28 02:20:16;;;;;;;;;29.67;26.67;;;;;;;;5131129;27;8770;-74
2022/03/28 02:22:42;;;;;;;;;25.00;25.00;;;;;;;;5131063;27;8789;-73
2022/03/28 02:25:09;;;;;;;;;30.33;27.00;;;;;;;;5130935;27;8819;-74
2022/03/28 02:27:34;;;;;;;;;26.67;26.67;;;;;;;;5112422;27;9541;-74
2022/03/28 02:30:00;;;;;;;;;31.33;30.00;;;;;;;;5130991;27;11451;-74
2022/03/28 02:32:25;;;;;;;;;32.33;25.00;;;;;;;;5130628;27;8997;-74
2022/03/28 02:34:50;;;;;;;;;30.00;24.67;;;;;;;;5130792;27;8808;-74
2022/03/28 02:37:16;;;;;;;;;28.00;25.00;;;;;;;;5130917;27;8885;-74
2022/03/28 02:39:41;;;;;;;;;31.00;26.67;;;;;;;;5130302;27;8801;-74
2022/03/28 02:42:07;;;;;;;;;30.33;29.00;;;;;;;;5130738;27;8865;-74
2022/03/28 02:44:32;;;;;;;;;30.67;24.67;;;;;;;;5130719;27;8873;-74
2022/03/28 02:46:57;;;;;;;;;29.00;25.00;;;;;;;;5130834;27;8769;-74
2022/03/28 02:49:23;;;;;;;;;27.67;24.67;;;;;;;;5130445;27;9467;-73
2022/03/28 02:51:48;;;;;;;;;29.33;26.00;;;;;;;;5130591;27;8837;-74
2022/03/28 02:54:14;;;;;;;;;30.00;29.00;;;;;;;;5130581;27;9609;-74
2022/03/28 02:56:39;;;;;;;;;30.33;28.00;;;;;;;;5112229;27;8793;-74
2022/03/28 02:59:04;;;;;;;;;29.00;24.67;;;;;;;;5131761;27;8777;-74
2022/03/28 03:01:30;;;;;;;;;31.67;28.67;;;;;;;;5135417;27;8766;-75
2022/03/28 03:03:55;;;;;;;;;32.67;24.67;;;;;;;;5117198;27;8785;-75
2022/03/28 03:06:21;;;;;;;;;29.00;26.00;;;;;;;;5134491;27;9034;-74
2022/03/28 03:08:46;;;;;;;;;30.00;26.33;;;;;;;;5134423;27;8766;-74
2022/03/28 03:11:11;;;;;;;;;27.67;25.00;;;;;;;;5134465;27;8781;-75
2022/03/28 03:13:37;;;;;;;;;30.67;29.00;;;;;;;;5134436;27;8822;-74
2022/03/28 03:16:03;;;;;;;;;27.33;23.33;;;;;;;;5134381;27;8792;-74
2022/03/28 03:18:29;;;;;;;;;36.00;27.00;;;;;;;;5134304;27;8798;-74
2022/03/28 03:20:54;;;;;;;;;32.67;25.33;;;;;;;;5134443;27;8812;-74
2022/03/28 03:23:19;;;;;;;;;27.67;25.33;;;;;;;;5134208;27;8790;-74
2022/03/28 03:25:47;;;;;;;;;33.00;26.00;;;;;;;;5134209;27;8797;-74
2022/03/28 03:28:12;;;;;;;;;31.00;27.33;;;;;;;;5134128;27;8792;-74
2022/03/28 03:30:38;;;;;;;;;28.00;26.33;;;;;;;;5134074;27;8786;-74
2022/03/28 03:33:03;;;;;;;;;30.33;24.00;;;;;;;;5133847;27;8841;-74
2022/03/28 03:35:29;;;;;;;;;31.00;27.00;;;;;;;;5133969;27;8821;-74
2022/03/28 03:37:54;;;;;;;;;23.67;22.33;;;;;;;;5115285;27;8802;-73
2022/03/28 03:40:19;;;;;;;;;28.00;23.33;;;;;;;;5134261;27;8809;-74
2022/03/28 03:42:44;;;;;;;;;37.33;29.67;;;;;;;;5133687;27;8833;-73
2022/03/28 03:45:10;;;;;;;;;29.00;25.00;;;;;;;;5133891;27;8777;-73
2022/03/28 03:47:36;;;;;;;;;23.00;22.33;;;;;;;;5133664;27;8831;-74
2022/03/28 03:50:02;;;;;;;;;28.67;25.00;;;;;;;;5133528;27;8786;-75
2022/03/28 03:52:28;;;;;;;;;35.33;28.00;;;;;;;;5133490;27;8770;-73
2022/03/28 03:54:53;;;;;;;;;31.67;27.00;;;;;;;;5133377;27;8828;-73
2022/03/28 03:57:18;;;;;;;;;24.67;24.00;;;;;;;;5133365;27;8802;-74
2022/03/28 03:59:44;;;;;;;;;24.00;23.00;;;;;;;;5133418;27;8777;-74
2022/03/28 04:02:09;;;;;;;;;36.00;29.00;;;;;;;;5133333;27;8781;-74
2022/03/28 04:04:34;;;;;;;;;26.33;24.00;;;;;;;;5133008;27;10612;-75
2022/03/28 04:07:00;;;;;;;;;26.00;21.67;;;;;;;;5114712;27;8828;-74
2022/03/28 04:09:25;;;;;;;;;31.00;27.67;;;;;;;;5133084;27;8785;-74
2022/03/28 04:11:50;;;;;;;;;32.00;29.00;;;;;;;;5132908;27;8774;-74
2022/03/28 04:14:16;;;;;;;;;37.33;28.00;;;;;;;;5132975;27;8837;-74
2022/03/28 04:16:41;;;;;;;;;28.67;24.00;;;;;;;;5133103;27;8794;-73
2022/03/28 04:19:06;;;;;;;;;33.33;21.67;;;;;;;;5114522;27;8824;-74
2022/03/28 04:21:32;;;;;;;;;27.33;26.67;;;;;;;;5132841;27;8777;-73
2022/03/28 04:23:57;;;;;;;;;25.67;23.33;;;;;;;;5132834;27;8797;-74
2022/03/28 04:26:22;;;;;;;;;27.33;23.33;;;;;;;;5132872;27;8816;-73
2022/03/28 04:28:47;;;;;;;;;27.67;24.00;;;;;;;;5132881;27;8796;-74
2022/03/28 04:31:13;;;;;;;;;27.67;25.67;;;;;;;;5132914;27;8820;-73
2022/03/28 04:33:38;;;;;;;;;31.00;23.67;;;;;;;;5132730;27;8829;-74
2022/03/28 04:36:04;;;;;;;;;23.67;23.33;;;;;;;;5132789;27;8796;-74
2022/03/28 04:38:30;;;;;;;;;30.67;24.00;;;;;;;;5114145;27;9506;-74
2022/03/28 04:40:55;;;;;;;;;30.00;25.33;;;;;;;;5132543;27;8793;-73
2022/03/28 04:43:20;;;;;;;;;23.33;23.33;;;;;;;;5132428;27;8817;-72
2022/03/28 04:45:46;;;;;;;;;24.00;22.67;;;;;;;;5132553;27;8782;-73
2022/03/28 04:48:11;;;;;;;;;34.67;28.00;;;;;;;;5132441;27;8816;-74
2022/03/28 04:50:37;;;;;;;;;27.33;26.00;;;;;;;;5132456;27;8924;-74
2022/03/28 04:53:02;;;;;;;;;27.00;21.67;;;;;;;;5132239;27;8831;-74
2022/03/28 04:55:28;;;;;;;;;28.33;27.00;;;;;;;;5132311;27;8892;-74
2022/03/28 04:57:53;;;;;;;;;27.33;26.00;;;;;;;;5132324;27;8786;-74
2022/03/28 05:00:18;;;;;;;;;23.67;17.67;;;;;;;;5132136;27;8886;-73
2022/03/28 05:02:44;;;;;;;;;27.00;24.00;;;;;;;;5132218;27;8798;-75
2022/03/28 05:05:09;;;;;;;;;30.67;27.00;;;;;;;;5132367;27;8787;-74
2022/03/28 05:07:36;;;;;;;;;30.33;29.00;;;;;;;;5132160;27;8789;-73
2022/03/28 05:10:01;;;;;;;;;28.33;23.00;;;;;;;;5132133;27;8904;-75
2022/03/28 05:12:27;;;;;;;;;30.33;22.67;;;;;;;;5132049;27;8829;-74
2022/03/28 05:14:53;;;;;;;;;28.33;23.33;;;;;;;;5131974;27;9598;-74
2022/03/28 05:17:21;;;;;;;;;33.00;26.67;;;;;;;;5131902;27;8798;-73
2022/03/28 05:19:46;;;;;;;;;26.33;22.33;;;;;;;;5131833;27;8982;-74
2022/03/28 05:22:12;;;;;;;;;27.67;26.00;;;;;;;;5131287;27;8841;-73
2022/03/28 05:24:37;;;;;;;;;27.67;23.67;;;;;;;;5131667;27;8912;-71
2022/03/28 05:27:02;;;;;;;;;25.00;22.00;;;;;;;;5131138;27;8801;-72
2022/03/28 05:29:28;;;;;;;;;27.00;22.00;;;;;;;;5131509;27;8892;-74
2022/03/28 05:31:53;;;;;;;;;21.67;19.00;;;;;;;;5131648;27;8824;-73
2022/03/28 05:34:18;;;;;;;;;27.33;24.33;;;;;;;;5131490;27;8805;-74
2022/03/28 05:36:45;;;;;;;;;28.00;25.00;;;;;;;;5131541;27;8777;-73
2022/03/28 05:39:10;;;;;;;;;55.67;44.67;;;;;;;;5113219;27;8801;-72
2022/03/28 05:41:36;;;;;;;;;33.67;29.33;;;;;;;;5131269;27;8820;-72
2022/03/28 05:44:01;;;;;;;;;23.67;23.67;;;;;;;;5130926;27;8836;-73
2022/03/28 05:46:27;;;;;;;;;27.00;24.67;;;;;;;;5131325;27;8892;-72
2022/03/28 05:48:52;;;;;;;;;37.33;30.33;;;;;;;;5123507;27;8810;-72
2022/03/28 05:51:17;;;;;;;;;37.00;27.67;;;;;;;;5130782;27;8877;-71
2022/03/28 05:53:43;;;;;;;;;36.67;30.00;;;;;;;;5130750;27;8880;-73
2022/03/28 05:56:08;;;;;;;;;38.67;36.00;;;;;;;;5130782;27;8773;-71
2022/03/28 05:58:33;;;;;;;;;31.00;28.33;;;;;;;;5130611;27;8770;-72
2022/03/28 06:01:00;;;;;;;;;29.00;25.33;;;;;;;;5112115;27;8946;-73
2022/03/28 06:03:25;;;;;;;;;32.67;24.67;;;;;;;;5111851;27;8802;-72
2022/03/28 06:05:51;;;;;;;;;31.67;29.33;;;;;;;;5130791;27;9511;-72
2022/03/28 06:08:16;;;;;;;;;31.67;30.67;;;;;;;;5129246;27;8805;-71
2022/03/28 06:10:41;;;;;;;;;29.33;27.33;;;;;;;;5119969;27;9936;-71
2022/03/28 06:13:07;;;;;;;;;30.00;28.33;;;;;;;;5090510;28;9668;-72
2022/03/28 06:15:36;;;;;;;;;31.00;29.33;;;;;;;;5091481;28;9554;-72
2022/03/28 06:18:03;;;;;;;;;32.00;28.67;;;;;;;;5109911;28;8784;-71
2022/03/28 06:20:32;;;;;;;;;34.33;27.33;;;;;;;;5109738;28;8780;-72
2022/03/28 06:22:57;;;;;;;;;32.00;28.33;;;;;;;;5109994;28;8804;-72
2022/03/28 06:25:23;;;;;;;;;28.33;25.67;;;;;;;;5109474;28;9631;-72
2022/03/28 06:27:48;;;;;;;;;24.33;23.67;;;;;;;;5109758;28;9675;-72
2022/03/28 06:30:14;;;;;;;;;30.33;25.33;;;;;;;;5109609;28;8896;-71
2022/03/28 06:32:40;;;;;;;;;34.33;28.33;;;;;;;;5109294;28;8800;-71
2022/03/28 06:35:06;;;;;;;;;30.33;27.67;;;;;;;;5111584;28;8800;-72
2022/03/28 06:37:32;;;;;;;;;27.00;25.67;;;;;;;;5113552;28;8784;-72
2022/03/28 06:39:57;;;;;;;;;37.67;28.67;;;;;;;;5113875;28;8796;-71
2022/03/28 06:42:22;;;;;;;;;26.33;25.67;;;;;;;;5113511;28;8768;-72
2022/03/28 06:44:48;;;;;;;;;35.00;31.00;;;;;;;;5113390;28;9571;-72
2022/03/28 06:47:13;;;;;;;;;30.33;27.33;;;;;;;;5113503;28;8792;-71
2022/03/28 06:49:39;;;;;;;;;33.00;27.67;;;;;;;;5095017;28;8818;-73
2022/03/28 06:52:04;;;;;;;;;27.00;25.00;;;;;;;;5113870;27;8789;-73
2022/03/28 06:54:29;;;;;;;;;34.67;28.00;;;;;;;;5132604;27;8961;-72
2022/03/28 06:56:55;;;;;;;;;41.00;34.00;;;;;;;;5133703;27;9127;-73
2022/03/28 06:59:22;;;;;;;;;44.33;39.00;;;;;;;;5133344;27;8843;-72
2022/03/28 07:01:47;;;;;;;;;44.67;33.67;;;;;;;;5131796;27;9541;-71
2022/03/28 07:04:12;;;;;;;;;32.33;31.00;;;;;;;;5131906;27;8802;-71
2022/03/28 07:06:38;;;;;;;;;34.33;30.33;;;;;;;;5131914;27;8975;-74
2022/03/28 07:09:04;;;;;;;;;29.33;28.00;;;;;;;;5131311;27;8833;-74
2022/03/28 07:11:30;;;;;;;;;31.67;28.33;;;;;;;;5132135;27;8810;-73
2022/03/28 07:13:55;;;;;;;;;34.67;30.67;;;;;;;;5132119;27;8880;-72
2022/03/28 07:16:21;;;;;;;;;35.00;28.00;;;;;;;;5130565;27;8801;-73
2022/03/28 07:18:46;;;;;;;;;28.33;24.00;;;;;;;;5132538;27;8798;-73
2022/03/28 07:21:11;;;;;;;;;35.67;27.00;;;;;;;;5132448;27;8802;-72
2022/03/28 07:23:37;;;;;;;;;39.00;30.67;;;;;;;;5132344;27;8905;-74
2022/03/28 07:26:02;;;;;;;;;27.67;25.33;;;;;;;;5132554;27;8785;-73
2022/03/28 07:28:28;;;;;;;;;32.00;31.00;;;;;;;;5132224;27;9502;-73
2022/03/28 07:30:53;;;;;;;;;36.00;25.00;;;;;;;;5113258;27;8789;-74
2022/03/28 07:33:18;;;;;;;;;30.33;27.00;;;;;;;;5133240;27;8793;-73
2022/03/28 07:35:45;;;;;;;;;31.00;29.33;;;;;;;;5132952;27;8789;-73
2022/03/28 07:38:10;;;;;;;;;30.00;26.33;;;;;;;;5133292;27;8790;-73
2022/03/28 07:40:37;;;;;;;;;18.67;18.33;;;;;;;;5133262;27;8777;-73
2022/03/28 07:43:02;;;;;;;;;32.67;25.00;;;;;;;;5132894;27;8825;-73
2022/03/28 07:45:28;;;;;;;;;30.00;28.00;;;;;;;;5113962;27;8803;-74
2022/03/28 07:47:53;;;;;;;;;25.33;22.67;;;;;;;;5131374;27;8821;-70
2022/03/28 07:50:18;;;;;;;;;28.67;26.67;;;;;;;;5132969;27;8933;-72
2022/03/28 07:52:44;;;;;;;;;36.00;29.33;;;;;;;;5113848;27;8805;-71
2022/03/28 07:55:11;;;;;;;;;29.67;26.00;;;;;;;;5132861;27;8894;-71
2022/03/28 07:57:37;;;;;;;;;30.00;24.33;;;;;;;;5132563;27;8840;-72
2022/03/28 08:00:04;;;;;;;;;26.00;22.00;;;;;;;;5132622;27;9491;-71
2022/03/28 08:02:29;;;;;;;;;33.67;23.00;;;;;;;;5129542;27;8821;-72
2022/03/28 08:04:55;;;;;;;;;29.33;24.33;;;;;;;;5132157;27;11518;-72
2022/03/28 08:07:20;;;;;;;;;29.33;25.00;;;;;;;;5132548;27;8858;-72
2022/03/28 08:09:46;;;;;;;;;30.00;25.67;;;;;;;;5132427;27;8793;-72
2022/03/28 08:12:11;;;;;;;;;27.67;25.00;;;;;;;;5131946;27;8805;-73
2022/03/28 08:14:37;;;;;;;;;24.25;22.50;;;;;;;;5131351;27;9530;-72
2022/03/28 08:17:03;;;;;;;;;30.67;21.67;;;;;;;;5131703;27;9528;-73
2022/03/28 08:19:28;;;;;;;;;25.25;25.00;;;;;;;;5113228;27;8932;-73
2022/03/28 08:21:53;;;;;;;;;24.25;23.25;;;;;;;;5131525;27;8785;-71
2022/03/28 08:24:19;;;;;;;;;26.75;25.00;;;;;;;;5131398;27;8805;-72
2022/03/28 08:26:46;;;;;;;;;26.50;22.00;;;;;;;;5131903;27;8785;-74
2022/03/28 08:29:12;;;;;;;;;32.25;24.75;;;;;;;;5131684;27;8802;-73
2022/03/28 08:31:37;;;;;;;;;28.00;23.50;;;;;;;;5131127;27;11465;-73
2022/03/28 08:34:03;;;;;;;;;29.75;24.25;;;;;;;;5131317;27;11490;-73
2022/03/28 08:36:30;;;;;;;;;25.50;21.75;;;;;;;;5130672;27;8790;-72
2022/03/28 08:38:56;;;;;;;;;23.00;21.00;;;;;;;;5131420;27;8893;-71
2022/03/28 08:41:22;;;;;;;;;34.00;30.75;;;;;;;;5130933;27;11487;-72
2022/03/28 08:43:48;;;;;;;;;31.00;25.50;;;;;;;;5130386;27;8825;-71
2022/03/28 08:46:15;;;;;;;;;26.00;20.25;;;;;;;;5129410;27;12345;-70
2022/03/28 08:48:41;;;;;;;;;27.50;22.25;;;;;;;;5130267;27;8794;-71
2022/03/28 08:51:11;;;;;;;;;27.00;23.25;;;;;;;;5130203;27;12192;-69
2022/03/28 08:53:37;;;;;;;;;31.25;25.00;;;;;;;;5130704;27;11459;-70
2022/03/28 08:56:02;;;;;;;;;24.50;22.00;;;;;;;;5130413;27;11408;-71
2022/03/28 08:58:27;;;;;;;;;22.00;22.00;;;;;;;;5129480;27;8785;-71
2022/03/28 09:00:53;;;;;;;;;27.00;22.75;;;;;;;;5130560;27;8774;-71
2022/03/28 09:03:19;;;;;;;;;25.00;23.75;;;;;;;;5130987;27;8870;-72
2022/03/28 09:05:47;;;;;;;;;23.00;23.00;;;;;;;;5130740;27;8817;-71
2022/03/28 09:08:12;;;;;;;;;24.25;20.50;;;;;;;;5125086;27;8943;-71
2022/03/28 09:10:45;;;;;;;;;26.00;22.00;;;;;;;;5130321;27;10611;-72
2022/03/28 09:13:11;;;;;;;;;24.00;21.50;;;;;;;;5127621;27;8838;-71
2022/03/28 09:15:55;;;;;;;;;27.75;23.00;;;;;;;;5129883;27;10340;-71
2022/03/28 09:18:25;;;;;;;;;27.75;23.00;;;;;;;;5110251;27;10518;-69
2022/03/28 09:20:51;;;;;;;;;21.50;19.75;;;;;;;;5111741;27;10293;-72
2022/03/28 09:23:35;;;;;;;;;21.75;20.75;;;;;;;;5130444;27;9949;-72
2022/03/28 09:26:07;;;;;;;;;24.25;23.25;;;;;;;;5129343;27;9951;-72
2022/03/28 09:28:53;;;;;;;;;21.00;18.50;;;;;;;;5128100;27;9968;-72
2022/03/28 09:31:26;;;;;;;;;21.25;19.25;;;;;;;;5128850;27;9644;-72
2022/03/28 09:33:51;;;;;;;;;20.00;18.50;;;;;;;;5127721;27;9846;-73
2022/03/28 09:36:16;;;;;;;;;22.25;20.00;;;;;;;;5130375;27;9604;-72
2022/03/28 09:38:55;;;;;;;;;24.75;20.00;;;;;;;;5131064;27;8798;-71
2022/03/28 09:41:22;;;;;;;;;21.75;20.00;;;;;;;;5125306;27;8800;-72
2022/03/28 09:43:52;;;;;;;;;19.67;18.67;;;;;;;;5121094;27;9397;-72
2022/03/28 09:46:24;;;;;;;;;19.33;18.33;;;;;;;;5091736;28;9275;-71
2022/03/28 09:48:49;;;;;;;;;19.33;17.33;;;;;;;;5110136;28;9360;-71
2022/03/28 09:51:16;;;;;;;;;19.00;18.00;;;;;;;;5110237;28;9309;-72
2022/03/28 09:53:41;;;;;;;;;22.67;20.67;;;;;;;;5109982;28;9103;-71
2022/03/28 09:56:07;;;;;;;;;19.67;19.67;;;;;;;;5110066;28;9244;-71
2022/03/28 09:58:42;;;;;;;;;22.67;20.00;;;;;;;;5110085;28;8810;-72
2022/03/28 10:01:11;;;;;;;;;23.33;19.67;;;;;;;;5109735;28;9321;-72
2022/03/28 10:03:37;;;;;;;;;20.00;18.67;;;;;;;;5110091;28;9157;-73
2022/03/28 10:06:03;;;;;;;;;25.33;20.67;;;;;;;;5122026;27;8957;-72
2022/03/28 10:08:29;;;;;;;;;21.00;20.00;;;;;;;;5128254;27;8904;-73
2022/03/28 10:10:55;;;;;;;;;19.33;18.67;;;;;;;;5129740;27;8809;-73
2022/03/28 10:13:21;;;;;;;;;22.00;22.00;;;;;;;;5130287;27;8858;-73
2022/03/28 10:15:47;;;;;;;;;20.00;20.00;;;;;;;;5119811;28;9039;-73
2022/03/28 10:18:12;;;;;;;;;20.33;20.00;;;;;;;;5109592;28;8776;-72
2022/03/28 10:20:41;;;;;;;;;22.33;22.00;;;;;;;;5119756;27;8794;-72
2022/03/28 10:23:07;;;;;;;;;22.33;21.00;;;;;;;;5130314;27;9005;-72
2022/03/28 10:25:33;;;;;;;;;22.25;21.50;;;;;;;;5130279;27;8884;-72
2022/03/28 10:27:59;;;;;;;;;18.00;17.00;;;;;;;;5130368;27;8786;-72
2022/03/28 10:30:27;;;;;;;;;22.33;21.33;;;;;;;;5130252;27;8805;-72
2022/03/28 10:33:11;;;;;;;;;21.00;20.67;;;;;;;;5130868;27;9048;-72
2022/03/28 10:35:37;;;;;;;;;27.25;24.00;;;;;;;;5130076;27;8921;-71
2022/03/28 10:38:15;;;;;;;;;22.67;22.00;;;;;;;;5130075;27;9395;-71
2022/03/28 10:40:58;;;;;;;;;26.50;22.75;;;;;;;;5130255;27;11513;-73
2022/03/28 10:43:25;;;;;;;;;23.25;22.50;;;;;;;;5130281;27;9524;-73
2022/03/28 10:46:01;;;;;;;;;24.25;22.00;;;;;;;;5111824;27;9474;-72
2022/03/28 10:48:34;;;;;;;;;24.00;22.75;;;;;;;;5130210;27;9912;-74
2022/03/28 10:51:04;;;;;;;;;26.75;24.25;;;;;;;;5129810;27;10023;-76
2022/03/28 10:53:39;;;;;;;;;28.75;27.00;;;;;;;;5129408;27;11209;-74
2022/03/28 10:56:07;;;;;;;;;27.00;26.25;;;;;;;;5111106;27;11105;-73
2022/03/28 10:58:37;;;;;;;;;30.50;28.50;;;;;;;;5129689;27;10422;-73
2022/03/28 11:01:09;;;;;;;;;29.75;28.00;;;;;;;;5111031;27;10781;-72
2022/03/28 11:03:39;;;;;;;;;29.00;26.25;;;;;;;;5110874;27;10773;-73
2022/03/28 11:06:05;;;;;;;;;27.25;27.25;;;;;;;;5128208;27;10712;-70
2022/03/28 11:08:35;;;;;;;;;31.50;28.25;;;;;;;;5114386;22;11015;-70
2022/03/28 11:11:13;;;;;;;;;28.25;27.50;;;;;;;;5064171;28;8798;-70
2022/03/28 11:13:38;;;;;;;;;30.25;28.75;;;;;;;;5066945;28;11232;-70
2022/03/28 11:16:04;;;;;;;;;30.00;30.00;;;;;;;;5067110;28;11287;-70
2022/03/28 11:18:29;;;;;;;;;29.00;26.00;;;;;;;;5067362;28;8853;-70
2022/03/28 11:20:54;;;;;;;;;27.25;25.75;;;;;;;;5068229;28;9665;-71
2022/03/28 11:23:20;;;;;;;;;28.25;26.00;;;;;;;;5070971;28;8896;-71
2022/03/28 11:25:46;;;;;;;;;30.50;29.00;;;;;;;;5070521;28;8779;-69
2022/03/28 11:28:19;;;;;;;;;26.75;25.50;;;;;;;;5070045;28;11569;-71
2022/03/28 11:30:44;;;;;;;;;30.75;28.50;;;;;;;;5068559;28;8807;-71
2022/03/28 11:33:11;;;;;;;;;25.75;24.25;;;;;;;;5069403;28;11552;-71
2022/03/28 11:35:37;;;;;;;;;25.25;24.00;;;;;;;;5070918;28;8798;-71
2022/03/28 11:38:03;;;;;;;;;32.50;30.75;;;;;;;;5070850;28;11507;-69
2022/03/28 11:40:40;;;;;;;;;39.75;33.50;;;;;;;;5070392;28;11498;-70
2022/03/28 11:43:06;;;;;;;;;25.50;23.25;;;;;;;;5070403;28;8846;-70
2022/03/28 11:45:33;;;;;;;;;28.50;27.50;;;;;;;;5067335;28;11477;-70
2022/03/28 11:47:59;;;;;;;;;28.00;27.50;;;;;;;;5070373;28;9593;-70
2022/03/28 11:50:28;;;;;;;;;31.25;28.50;;;;;;;;5070382;28;11448;-70
2022/03/28 11:52:53;;;;;;;;;27.75;25.75;;;;;;;;5061929;28;11467;-70
2022/03/28 11:55:21;;;;;;;;;27.25;26.50;;;;;;;;5051849;28;11485;-69
2022/03/28 12:00:34;;;;;;;;;28.00;26.00;;;;;;;;5067438;28;11476;-72
2022/03/28 12:03:00;;;;;;;;;23.75;22.50;;;;;;;;5069942;28;11702;-72
2022/03/28 12:05:26;;;;;;;;;26.50;25.50;;;;;;;;5069882;28;8795;-71
2022/03/28 12:07:52;;;;;;;;;30.25;29.50;;;;;;;;5068477;28;11530;-72
2022/03/28 12:10:17;;;;;;;;;31.50;29.25;;;;;;;;5069533;28;11486;-71
2022/03/28 12:12:43;;;;;;;;;26.75;24.25;;;;;;;;5069861;28;11482;-70
2022/03/28 12:15:11;;;;;;;;;33.50;30.00;;;;;;;;5070052;28;8945;-72
2022/03/28 12:17:37;;;;;;;;;33.25;30.50;;;;;;;;5082973;28;8794;-72
2022/03/28 12:20:06;;;;;;;;;34.00;29.75;;;;;;;;5068603;28;11499;-71
2022/03/28 12:22:45;;;;;;;;;31.00;29.00;;;;;;;;5068325;28;8802;-71
2022/03/28 12:25:21;;;;;;;;;30.25;28.50;;;;;;;;5069514;28;11530;-72
2022/03/28 12:27:50;;;;;;;;;30.25;26.00;;;;;;;;5069695;28;11476;-72
2022/03/28 12:30:15;;;;;;;;;29.00;24.00;;;;;;;;5081801;28;11603;-71
2022/03/28 12:32:43;;;;;;;;;33.75;31.00;;;;;;;;5069575;28;11682;-72
2022/03/28 12:35:09;;;;;;;;;31.75;30.00;;;;;;;;5069578;28;8809;-71
2022/03/28 12:37:37;;;;;;;;;32.50;30.75;;;;;;;;5066313;28;11591;-72
2022/03/28 12:40:02;;;;;;;;;34.50;31.25;;;;;;;;5069692;28;11533;-72
2022/03/28 12:42:28;;;;;;;;;34.00;31.00;;;;;;;;5069195;28;11562;-73
2022/03/28 12:44:54;;;;;;;;;26.00;26.00;;;;;;;;5069319;28;8823;-72
2022/03/28 12:47:20;;;;;;;;;31.25;29.00;;;;;;;;5069442;28;8983;-73
2022/03/28 12:49:45;;;;;;;;;34.25;31.00;;;;;;;;5069676;28;12279;-72
2022/03/28 12:52:14;;;;;;;;;30.50;30.50;;;;;;;;5069051;28;8938;-72
2022/03/28 12:54:40;;;;;;;;;33.00;30.25;;;;;;;;5068106;28;9551;-72
2022/03/28 12:57:05;;;;;;;;;31.75;29.50;;;;;;;;5069312;28;11571;-73
2022/03/28 12:59:35;;;;;;;;;28.75;25.75;;;;;;;;5070134;28;8807;-70
2022/03/28 13:02:08;;;;;;;;;63.25;48.50;;;;;;;;5069775;28;8933;-72
2022/03/28 13:04:43;;;;;;;;;38.00;31.50;;;;;;;;5069885;28;12344;-71
2022/03/28 13:07:09;;;;;;;;;25.75;24.00;;;;;;;;5061276;28;11587;-73
2022/03/28 13:09:34;;;;;;;;;27.75;24.50;;;;;;;;5050096;28;12316;-71
2022/03/28 13:12:09;;;;;;;;;36.50;31.50;;;;;;;;5049850;28;8809;-72
2022/03/28 13:14:35;;;;;;;;;37.00;33.00;;;;;;;;5050470;28;8832;-71
2022/03/28 13:17:03;;;;;;;;;26.00;23.00;;;;;;;;5049630;28;11561;-71
2022/03/28 13:19:29;;;;;;;;;33.75;31.00;;;;;;;;5049925;28;8947;-71
2022/03/28 13:21:57;;;;;;;;;30.25;28.75;;;;;;;;5049803;28;11539;-71
2022/03/28 13:24:27;;;;;;;;;33.50;30.00;;;;;;;;5050334;28;8813;-71
2022/03/28 13:28:01;;;;;;;;;35.75;32.00;;;;;;;;5060505;28;11492;-73
2022/03/28 13:29:39;;;;;;;;;30.00;29.75;;;;;;;;5069712;28;11545;-72
2022/03/28 13:32:04;;;;;;;;;34.25;31.25;;;;;;;;5070000;28;11504;-72
2022/03/28 13:34:29;;;;;;;;;38.50;31.75;;;;;;;;5070205;28;12287;-73
2022/03/28 13:36:55;;;;;;;;;33.00;30.50;;;;;;;;5069857;28;8912;-73
2022/03/28 13:39:20;;;;;;;;;37.75;31.25;;;;;;;;5070259;28;8811;-74
2022/03/28 13:41:45;;;;;;;;;33.75;31.75;;;;;;;;5069761;28;8799;-73
2022/03/28 13:44:11;;;;;;;;;35.00;30.50;;;;;;;;5069694;28;9563;-74
2022/03/28 13:46:37;;;;;;;;;34.75;31.00;;;;;;;;5069798;28;8791;-74
2022/03/28 13:49:03;;;;;;;;;32.25;28.00;;;;;;;;5068724;28;8906;-74
2022/03/28 13:51:28;;;;;;;;;24.00;22.25;;;;;;;;5070179;28;8794;-75
2022/03/28 13:53:54;;;;;;;;;35.75;30.50;;;;;;;;5070164;28;8802;-75
2022/03/28 13:56:21;;;;;;;;;35.75;31.25;;;;;;;;5069477;28;8825;-75
2022/03/28 13:58:46;;;;;;;;;29.25;26.00;;;;;;;;5070060;28;11574;-75
2022/03/28 14:01:11;;;;;;;;;32.00;30.25;;;;;;;;5070018;28;12202;-76
2022/03/28 14:03:38;;;;;;;;;35.00;30.25;;;;;;;;5069623;28;8827;-74
2022/03/28 14:06:05;;;;;;;;;36.75;31.00;;;;;;;;5069746;28;8798;-75
2022/03/28 14:08:34;;;;;;;;;34.25;31.25;;;;;;;;5069657;28;12303;-75
2022/03/28 14:10:59;;;;;;;;;33.00;30.50;;;;;;;;5069330;28;8826;-71
2022/03/28 14:13:25;;;;;;;;;31.75;28.00;;;;;;;;5068721;28;11548;-71
2022/03/28 14:15:53;;;;;;;;;34.50;31.00;;;;;;;;5067527;28;8810;-72
2022/03/28 14:18:20;;;;;;;;;32.50;30.50;;;;;;;;5069172;28;8802;-73
2022/03/28 14:20:46;;;;;;;;;33.50;31.50;;;;;;;;5069304;28;11538;-70
2022/03/28 14:23:11;;;;;;;;;35.00;32.25;;;;;;;;5068714;28;11532;-72
2022/03/28 14:25:37;;;;;;;;;36.75;31.50;;;;;;;;5068432;28;8852;-73
2022/03/28 14:28:02;;;;;;;;;33.50;29.25;;;;;;;;5068931;28;8798;-72
2022/03/28 14:30:28;;;;;;;;;33.75;31.75;;;;;;;;5067458;28;8803;-72